Terminal Aerodrome Forecast
Issued by NWS Caribou, ME

Home | Current Version | Previous Version | Text Only | Print | Product List | Glossary On
Versions: 1 2 3 4 5 6 7 8 9 10 11 12 13 14 15 16 17 18 19 20 21 22 23
000
FTUS41 KCAR 300540
TAFBGR
TAF
KBGR 300540Z 3006/3106 16004KT 1 1/2SM BR OVC003
     FM301200 20005KT 5SM -SHRA SCT008 OVC015
     FM301500 21005KT P6SM OVC020
     FM301700 20006KT P6SM SCT035 BKN070
     FM310200 21006KT P6SM BKN003=

USA.gov is the U.S. government's official web portal to all federal, state and local government web resources and services.